Barney, ND (58008)

8:48 PM CST on December 26, 2014 (GMT -0600)
Stern | Change Station
CLOSE
Current Station
Airport
Location: Wahpeton,
Elevation: 968 ft
Nearby Weather Stations

Elev 968 ft 46.24 °N, 96.61 °W | Updated 13 minutes ago

Mostly Cloudy
Mostly Cloudy
21 °F
Feels Like 10 °F
N
12
Wind Variable Wind from North

Today
High -- | Low -- °F
--% Chance of Precip.
Yesterday
High -- | Low -- °F
Precip. -- in
8:10 AM 4:47 PM
Waxing Crescent, 31% visible
Pressure 30.20 in
Visibility 10.0 miles
Clouds Overcast 1800 ft
Windchill 10 °F
Dew Point 14 °F
Humidity 74%
Rainfall 0.00 in
Snow Depth Not available.
UV 0 out of 12
Pollen .10 out of 12
Air Quality Not available.
Flu Activity Not available.
METAR KBWP 270235Z AUTO 01010KT 10SM OVC018 M06/M10 A3020 RMK AO1

More Conditions Fewer Conditions

Pressure 30.20 in
Visibility 10.0 miles
Clouds Overcast 1800 ft
Windchill 10 °F
Dew Point 14 °F
Humidity 74%
Rainfall 0.00 in
Snow Depth Not available.
UV 0 out of 12
Pollen .10 out of 12
Air Quality Not available.
Flu Activity Not available.
METAR KBWP 270235Z AUTO 01010KT 10SM OVC018 M06/M10 A3020 RMK AO1

More Conditions Fewer Conditions

10-Day Weather Forecast

Almanac

Astronomy

Dec. 26, 2014 Rise Set
Actual Time
Civil Twilight
Nautical Twilight
Astronomical Twilight
Moon
Length of Visible Light
Length of Day
Tomorrow will be .
, % of the Moon is Illuminated

Today's Extremes

State Highs State Lows

Community

WunderPhotos

Upload Photos

1,780,818 photos uploaded!

WunderBlogs® & News

Nearby

Air Quality

  Air Quality AQ Index Pollutant
Not available.

Snow Depth

Station Depth Elevation

Earthquake Activity

City Distance Mag. Time & Date
Minimum magnitude displayed is 2.5.

Coastal Water Temperatures

Place Temperature

Nearby Weather Stations